sensor_id;sensor_type;location;lat;lon;timestamp;temperature;humidity
20722;DHT22;10522;52.198;9.890;2023-01-10T00:02:21;6.20;99.90
20722;DHT22;10522;52.198;9.890;2023-01-10T00:04:46;6.30;99.90
20722;DHT22;10522;52.198;9.890;2023-01-10T00:07:12;6.20;99.90
20722;DHT22;10522;52.198;9.890;2023-01-10T00:09:38;6.20;99.90
20722;DHT22;10522;52.198;9.890;2023-01-10T00:12:03;6.20;99.90
20722;DHT22;10522;52.198;9.890;2023-01-10T00:14:47;6.20;99.90
20722;DHT22;10522;52.198;9.890;2023-01-10T00:17:13;6.20;99.90
20722;DHT22;10522;52.198;9.890;2023-01-10T00:19:38;6.20;99.90
20722;DHT22;10522;52.198;9.890;2023-01-10T00:22:04;6.20;99.90
20722;DHT22;10522;52.198;9.890;2023-01-10T00:24:30;6.30;99.90
20722;DHT22;10522;52.198;9.890;2023-01-10T00:26:55;6.30;99.90
20722;DHT22;10522;52.198;9.890;2023-01-10T00:29:25;6.30;99.90
20722;DHT22;10522;52.198;9.890;2023-01-10T00:31:52;6.30;99.90
20722;DHT22;10522;52.198;9.890;2023-01-10T00:34:18;6.30;99.90
20722;DHT22;10522;52.198;9.890;2023-01-10T00:36:44;6.30;99.90
20722;DHT22;10522;52.198;9.890;2023-01-10T00:39:11;6.20;99.90
20722;DHT22;10522;52.198;9.890;2023-01-10T00:41:38;6.20;99.90
20722;DHT22;10522;52.198;9.890;2023-01-10T00:44:22;6.20;99.90
20722;DHT22;10522;52.198;9.890;2023-01-10T00:46:48;6.20;99.90
20722;DHT22;10522;52.198;9.890;2023-01-10T00:49:13;6.10;99.90
20722;DHT22;10522;52.198;9.890;2023-01-10T00:51:41;6.10;99.90
20722;DHT22;10522;52.198;9.890;2023-01-10T00:54:08;6.10;99.90
20722;DHT22;10522;52.198;9.890;2023-01-10T00:56:34;6.10;99.90
20722;DHT22;10522;52.198;9.890;2023-01-10T00:59:00;6.10;99.90
20722;DHT22;10522;52.198;9.890;2023-01-10T01:01:25;6.10;99.90
20722;DHT22;10522;52.198;9.890;2023-01-10T01:03:51;6.10;99.90
20722;DHT22;10522;52.198;9.890;2023-01-10T01:06:16;6.20;99.90
20722;DHT22;10522;52.198;9.890;2023-01-10T01:08:43;6.20;99.90
20722;DHT22;10522;52.198;9.890;2023-01-10T01:11:08;6.10;99.90
20722;DHT22;10522;52.198;9.890;2023-01-10T01:13:34;6.10;99.90
20722;DHT22;10522;52.198;9.890;2023-01-10T01:16:01;6.10;99.90
20722;DHT22;10522;52.198;9.890;2023-01-10T01:18:27;6.10;99.90
20722;DHT22;10522;52.198;9.890;2023-01-10T01:20:54;6.10;99.90
20722;DHT22;10522;52.198;9.890;2023-01-10T01:23:21;6.10;99.90
20722;DHT22;10522;52.198;9.890;2023-01-10T01:25:53;6.10;99.90
20722;DHT22;10522;52.198;9.890;2023-01-10T01:28:19;6.10;99.90
20722;DHT22;10522;52.198;9.890;2023-01-10T01:30:46;6.10;99.90
20722;DHT22;10522;52.198;9.890;2023-01-10T01:33:12;6.10;99.90
20722;DHT22;10522;52.198;9.890;2023-01-10T01:35:41;6.10;99.90
20722;DHT22;10522;52.198;9.890;2023-01-10T01:38:07;6.10;99.90
20722;DHT22;10522;52.198;9.890;2023-01-10T01:40:32;6.10;99.90
20722;DHT22;10522;52.198;9.890;2023-01-10T01:42:58;6.20;99.90
20722;DHT22;10522;52.198;9.890;2023-01-10T01:48:14;6.10;99.90
20722;DHT22;10522;52.198;9.890;2023-01-10T01:50:43;6.10;99.90
20722;DHT22;10522;52.198;9.890;2023-01-10T01:53:23;6.10;99.90
20722;DHT22;10522;52.198;9.890;2023-01-10T01:55:50;6.10;99.90
20722;DHT22;10522;52.198;9.890;2023-01-10T01:58:21;6.10;99.90
20722;DHT22;10522;52.198;9.890;2023-01-10T02:00:50;6.10;99.90
20722;DHT22;10522;52.198;9.890;2023-01-10T02:03:16;6.10;99.90
20722;DHT22;10522;52.198;9.890;2023-01-10T02:05:43;6.10;99.90
20722;DHT22;10522;52.198;9.890;2023-01-10T02:08:09;6.10;99.90
20722;DHT22;10522;52.198;9.890;2023-01-10T02:10:49;6.10;99.90
20722;DHT22;10522;52.198;9.890;2023-01-10T02:13:18;6.10;99.90
20722;DHT22;10522;52.198;9.890;2023-01-10T02:15:44;6.10;99.90
20722;DHT22;10522;52.198;9.890;2023-01-10T02:18:10;6.10;99.90
20722;DHT22;10522;52.198;9.890;2023-01-10T02:23:33;6.00;99.90
20722;DHT22;10522;52.198;9.890;2023-01-10T02:27:05;5.90;99.90
20722;DHT22;10522;52.198;9.890;2023-01-10T02:29:25;5.90;99.90
20722;DHT22;10522;52.198;9.890;2023-01-10T02:34:44;6.00;99.90
20722;DHT22;10522;52.198;9.890;2023-01-10T02:37:42;6.00;99.90
20722;DHT22;10522;52.198;9.890;2023-01-10T02:42:57;6.00;99.90
20722;DHT22;10522;52.198;9.890;2023-01-10T02:45:28;6.00;99.90
20722;DHT22;10522;52.198;9.890;2023-01-10T02:47:55;6.00;99.90
20722;DHT22;10522;52.198;9.890;2023-01-10T02:50:30;6.10;99.90
20722;DHT22;10522;52.198;9.890;2023-01-10T02:53:07;6.10;99.90
20722;DHT22;10522;52.198;9.890;2023-01-10T03:01:44;6.10;99.90
20722;DHT22;10522;52.198;9.890;2023-01-10T03:12:27;6.10;99.90
20722;DHT22;10522;52.198;9.890;2023-01-10T03:14:56;6.10;99.90
20722;DHT22;10522;52.198;9.890;2023-01-10T03:17:24;6.10;99.90
20722;DHT22;10522;52.198;9.890;2023-01-10T03:19:57;6.10;99.90
20722;DHT22;10522;52.198;9.890;2023-01-10T03:22:25;6.00;99.90
20722;DHT22;10522;52.198;9.890;2023-01-10T03:24:53;6.00;99.90
20722;DHT22;10522;52.198;9.890;2023-01-10T03:32:53;5.90;99.90
20722;DHT22;10522;52.198;9.890;2023-01-10T03:35:21;5.90;99.90
20722;DHT22;10522;52.198;9.890;2023-01-10T03:40:40;5.90;99.90
20722;DHT22;10522;52.198;9.890;2023-01-10T03:43:14;5.90;99.90
20722;DHT22;10522;52.198;9.890;2023-01-10T03:46:11;5.80;99.90
20722;DHT22;10522;52.198;9.890;2023-01-10T03:48:41;5.80;99.90
20722;DHT22;10522;52.198;9.890;2023-01-10T03:51:08;5.80;99.90
20722;DHT22;10522;52.198;9.890;2023-01-10T03:53:37;5.70;99.90
20722;DHT22;10522;52.198;9.890;2023-01-10T03:56:04;5.70;99.90
20722;DHT22;10522;52.198;9.890;2023-01-10T03:58:29;5.70;99.90
20722;DHT22;10522;52.198;9.890;2023-01-10T04:00:55;5.70;99.90
20722;DHT22;10522;52.198;9.890;2023-01-10T04:03:20;5.70;99.90
20722;DHT22;10522;52.198;9.890;2023-01-10T04:05:46;5.70;99.90
20722;DHT22;10522;52.198;9.890;2023-01-10T04:08:12;5.60;99.90
20722;DHT22;10522;52.198;9.890;2023-01-10T04:10:37;5.60;99.90
20722;DHT22;10522;52.198;9.890;2023-01-10T04:13:04;5.60;99.90
20722;DHT22;10522;52.198;9.890;2023-01-10T04:15:30;5.70;99.90
20722;DHT22;10522;52.198;9.890;2023-01-10T04:17:55;5.70;99.90
20722;DHT22;10522;52.198;9.890;2023-01-10T04:20:22;5.80;99.90
20722;DHT22;10522;52.198;9.890;2023-01-10T04:22:50;5.80;99.90
20722;DHT22;10522;52.198;9.890;2023-01-10T04:25:16;5.80;99.90
20722;DHT22;10522;52.198;9.890;2023-01-10T04:27:42;5.90;99.90
20722;DHT22;10522;52.198;9.890;2023-01-10T04:30:08;5.90;99.90
20722;DHT22;10522;52.198;9.890;2023-01-10T04:32:34;5.80;99.90
20722;DHT22;10522;52.198;9.890;2023-01-10T04:35:00;5.90;99.90
20722;DHT22;10522;52.198;9.890;2023-01-10T04:37:25;5.90;99.90
20722;DHT22;10522;52.198;9.890;2023-01-10T04:39:51;5.90;99.90
20722;DHT22;10522;52.198;9.890;2023-01-10T04:42:16;5.90;99.90
20722;DHT22;10522;52.198;9.890;2023-01-10T04:44:42;5.90;99.90
20722;DHT22;10522;52.198;9.890;2023-01-10T04:47:08;5.90;99.90
20722;DHT22;10522;52.198;9.890;2023-01-10T04:49:33;5.90;99.90
20722;DHT22;10522;52.198;9.890;2023-01-10T04:51:59;6.00;99.90
20722;DHT22;10522;52.198;9.890;2023-01-10T04:54:25;5.90;99.90
20722;DHT22;10522;52.198;9.890;2023-01-10T04:56:50;6.00;99.90
20722;DHT22;10522;52.198;9.890;2023-01-10T04:59:16;6.00;99.90
20722;DHT22;10522;52.198;9.890;2023-01-10T05:01:42;5.90;99.90
20722;DHT22;10522;52.198;9.890;2023-01-10T05:04:08;6.00;99.90
20722;DHT22;10522;52.198;9.890;2023-01-10T05:06:34;5.90;99.90
20722;DHT22;10522;52.198;9.890;2023-01-10T05:08:59;5.90;99.90
20722;DHT22;10522;52.198;9.890;2023-01-10T05:11:25;5.90;99.90
20722;DHT22;10522;52.198;9.890;2023-01-10T05:13:51;5.90;99.90
20722;DHT22;10522;52.198;9.890;2023-01-10T05:16:16;5.80;99.90
20722;DHT22;10522;52.198;9.890;2023-01-10T05:18:42;5.80;99.90
20722;DHT22;10522;52.198;9.890;2023-01-10T05:21:10;5.80;99.90
20722;DHT22;10522;52.198;9.890;2023-01-10T05:23:36;5.80;99.90
20722;DHT22;10522;52.198;9.890;2023-01-10T05:26:14;5.80;99.90
20722;DHT22;10522;52.198;9.890;2023-01-10T05:28:40;5.80;99.90
20722;DHT22;10522;52.198;9.890;2023-01-10T05:31:07;5.70;99.90
20722;DHT22;10522;52.198;9.890;2023-01-10T05:33:34;5.70;99.90
20722;DHT22;10522;52.198;9.890;2023-01-10T05:36:01;5.60;99.90
20722;DHT22;10522;52.198;9.890;2023-01-10T05:38:28;5.60;99.90
20722;DHT22;10522;52.198;9.890;2023-01-10T05:40:56;5.50;99.90
20722;DHT22;10522;52.198;9.890;2023-01-10T05:43:22;5.50;99.90
20722;DHT22;10522;52.198;9.890;2023-01-10T05:45:48;5.40;99.90
20722;DHT22;10522;52.198;9.890;2023-01-10T05:48:14;5.30;99.90
20722;DHT22;10522;52.198;9.890;2023-01-10T05:50:39;5.30;99.90
20722;DHT22;10522;52.198;9.890;2023-01-10T05:53:05;5.30;99.90
20722;DHT22;10522;52.198;9.890;2023-01-10T05:55:32;5.20;99.90
20722;DHT22;10522;52.198;9.890;2023-01-10T05:57:57;5.20;99.90
20722;DHT22;10522;52.198;9.890;2023-01-10T06:00:23;5.10;99.90
20722;DHT22;10522;52.198;9.890;2023-01-10T06:02:49;5.10;99.90
20722;DHT22;10522;52.198;9.890;2023-01-10T06:05:14;5.10;99.90
20722;DHT22;10522;52.198;9.890;2023-01-10T06:07:40;5.00;99.90
20722;DHT22;10522;52.198;9.890;2023-01-10T06:10:06;5.00;99.90
20722;DHT22;10522;52.198;9.890;2023-01-10T06:12:31;5.00;99.90
20722;DHT22;10522;52.198;9.890;2023-01-10T06:14:57;4.90;99.90
20722;DHT22;10522;52.198;9.890;2023-01-10T06:17:22;4.90;99.90
20722;DHT22;10522;52.198;9.890;2023-01-10T06:19:48;4.90;99.90
20722;DHT22;10522;52.198;9.890;2023-01-10T06:22:14;4.90;99.90
20722;DHT22;10522;52.198;9.890;2023-01-10T06:24:39;5.00;99.90
20722;DHT22;10522;52.198;9.890;2023-01-10T06:27:06;4.90;99.90
20722;DHT22;10522;52.198;9.890;2023-01-10T06:29:32;5.00;99.90
20722;DHT22;10522;52.198;9.890;2023-01-10T06:31:57;5.00;99.90
20722;DHT22;10522;52.198;9.890;2023-01-10T06:34:23;4.90;99.90
20722;DHT22;10522;52.198;9.890;2023-01-10T06:36:49;5.00;99.90
20722;DHT22;10522;52.198;9.890;2023-01-10T06:39:14;4.90;99.90
20722;DHT22;10522;52.198;9.890;2023-01-10T06:41:40;4.90;99.90
20722;DHT22;10522;52.198;9.890;2023-01-10T06:44:05;5.00;99.90
20722;DHT22;10522;52.198;9.890;2023-01-10T06:46:31;5.00;99.90
20722;DHT22;10522;52.198;9.890;2023-01-10T06:48:56;5.10;99.90
20722;DHT22;10522;52.198;9.890;2023-01-10T06:51:22;5.20;99.90
20722;DHT22;10522;52.198;9.890;2023-01-10T06:53:47;5.20;99.90
20722;DHT22;10522;52.198;9.890;2023-01-10T06:56:13;5.20;99.90
20722;DHT22;10522;52.198;9.890;2023-01-10T06:58:39;5.30;99.90
20722;DHT22;10522;52.198;9.890;2023-01-10T07:01:12;5.40;99.90
20722;DHT22;10522;52.198;9.890;2023-01-10T07:03:38;5.40;99.90
20722;DHT22;10522;52.198;9.890;2023-01-10T07:06:05;5.50;99.90
20722;DHT22;10522;52.198;9.890;2023-01-10T07:08:44;5.50;99.90
20722;DHT22;10522;52.198;9.890;2023-01-10T07:11:12;5.50;99.90
20722;DHT22;10522;52.198;9.890;2023-01-10T07:13:38;5.60;99.90
20722;DHT22;10522;52.198;9.890;2023-01-10T07:16:09;5.60;99.90
20722;DHT22;10522;52.198;9.890;2023-01-10T07:18:37;5.60;99.90
20722;DHT22;10522;52.198;9.890;2023-01-10T07:21:03;5.70;99.90
20722;DHT22;10522;52.198;9.890;2023-01-10T07:23:29;5.70;99.90
20722;DHT22;10522;52.198;9.890;2023-01-10T07:26:06;5.80;99.90
20722;DHT22;10522;52.198;9.890;2023-01-10T07:28:32;5.80;99.90
20722;DHT22;10522;52.198;9.890;2023-01-10T07:31:02;5.70;99.90
20722;DHT22;10522;52.198;9.890;2023-01-10T07:33:28;5.70;99.90
20722;DHT22;10522;52.198;9.890;2023-01-10T07:35:54;5.80;99.90
20722;DHT22;10522;52.198;9.890;2023-01-10T07:38:20;5.80;99.90
20722;DHT22;10522;52.198;9.890;2023-01-10T07:40:46;5.80;99.90
20722;DHT22;10522;52.198;9.890;2023-01-10T07:43:11;5.80;99.90
20722;DHT22;10522;52.198;9.890;2023-01-10T07:45:37;5.80;99.90
20722;DHT22;10522;52.198;9.890;2023-01-10T07:48:03;5.80;99.90
20722;DHT22;10522;52.198;9.890;2023-01-10T07:50:32;5.80;99.90
20722;DHT22;10522;52.198;9.890;2023-01-10T07:53:00;5.80;99.90
20722;DHT22;10522;52.198;9.890;2023-01-10T07:55:27;5.90;99.90
20722;DHT22;10522;52.198;9.890;2023-01-10T07:57:53;5.90;99.90
20722;DHT22;10522;52.198;9.890;2023-01-10T08:00:19;5.90;99.90
20722;DHT22;10522;52.198;9.890;2023-01-10T08:02:45;5.90;99.90
20722;DHT22;10522;52.198;9.890;2023-01-10T08:05:11;5.90;99.90
20722;DHT22;10522;52.198;9.890;2023-01-10T08:07:36;5.90;99.90
20722;DHT22;10522;52.198;9.890;2023-01-10T08:10:04;5.90;99.90
20722;DHT22;10522;52.198;9.890;2023-01-10T08:12:30;5.90;99.90
20722;DHT22;10522;52.198;9.890;2023-01-10T08:14:57;5.90;99.90
20722;DHT22;10522;52.198;9.890;2023-01-10T08:17:22;5.90;99.90
20722;DHT22;10522;52.198;9.890;2023-01-10T08:19:48;6.00;99.90
20722;DHT22;10522;52.198;9.890;2023-01-10T08:22:13;6.00;99.90
20722;DHT22;10522;52.198;9.890;2023-01-10T08:24:39;6.00;99.90
20722;DHT22;10522;52.198;9.890;2023-01-10T08:27:04;6.00;99.90
20722;DHT22;10522;52.198;9.890;2023-01-10T08:29:30;6.00;99.90
20722;DHT22;10522;52.198;9.890;2023-01-10T08:31:56;6.00;99.90
20722;DHT22;10522;52.198;9.890;2023-01-10T08:34:22;6.10;99.90
20722;DHT22;10522;52.198;9.890;2023-01-10T08:36:52;6.20;99.90
20722;DHT22;10522;52.198;9.890;2023-01-10T08:39:18;6.20;99.90
20722;DHT22;10522;52.198;9.890;2023-01-10T08:41:46;6.30;99.90
20722;DHT22;10522;52.198;9.890;2023-01-10T08:44:11;6.20;99.90
20722;DHT22;10522;52.198;9.890;2023-01-10T08:46:40;6.20;99.90
20722;DHT22;10522;52.198;9.890;2023-01-10T08:49:05;6.20;99.90
20722;DHT22;10522;52.198;9.890;2023-01-10T08:51:31;6.20;99.90
20722;DHT22;10522;52.198;9.890;2023-01-10T08:53:57;6.20;99.90
20722;DHT22;10522;52.198;9.890;2023-01-10T08:56:22;6.20;99.90
20722;DHT22;10522;52.198;9.890;2023-01-10T08:58:48;6.30;99.90
20722;DHT22;10522;52.198;9.890;2023-01-10T09:01:13;6.20;99.90
20722;DHT22;10522;52.198;9.890;2023-01-10T09:03:39;6.30;99.90
20722;DHT22;10522;52.198;9.890;2023-01-10T09:06:05;6.30;99.90
20722;DHT22;10522;52.198;9.890;2023-01-10T09:08:31;6.30;99.90
20722;DHT22;10522;52.198;9.890;2023-01-10T09:10:58;6.30;99.90
20722;DHT22;10522;52.198;9.890;2023-01-10T09:13:24;6.30;99.90
20722;DHT22;10522;52.198;9.890;2023-01-10T09:15:50;6.40;99.90
20722;DHT22;10522;52.198;9.890;2023-01-10T09:18:16;6.40;99.90
20722;DHT22;10522;52.198;9.890;2023-01-10T09:20:41;6.50;99.90
20722;DHT22;10522;52.198;9.890;2023-01-10T09:23:10;6.40;99.90
20722;DHT22;10522;52.198;9.890;2023-01-10T09:25:36;6.50;99.90
20722;DHT22;10522;52.198;9.890;2023-01-10T09:28:03;6.50;99.90
20722;DHT22;10522;52.198;9.890;2023-01-10T09:30:29;6.50;99.90
20722;DHT22;10522;52.198;9.890;2023-01-10T09:32:56;6.50;99.90
20722;DHT22;10522;52.198;9.890;2023-01-10T09:35:23;6.50;99.90
20722;DHT22;10522;52.198;9.890;2023-01-10T09:37:49;6.60;99.90
20722;DHT22;10522;52.198;9.890;2023-01-10T09:40:42;6.60;99.90
20722;DHT22;10522;52.198;9.890;2023-01-10T09:51:31;6.70;99.90
20722;DHT22;10522;52.198;9.890;2023-01-10T09:54:01;6.60;99.90
20722;DHT22;10522;52.198;9.890;2023-01-10T09:56:28;6.70;99.90
20722;DHT22;10522;52.198;9.890;2023-01-10T09:58:55;6.70;99.90
20722;DHT22;10522;52.198;9.890;2023-01-10T10:01:34;6.70;99.90
20722;DHT22;10522;52.198;9.890;2023-01-10T10:04:15;6.70;99.90
20722;DHT22;10522;52.198;9.890;2023-01-10T10:06:44;6.70;99.90
20722;DHT22;10522;52.198;9.890;2023-01-10T10:09:14;6.80;99.90
20722;DHT22;10522;52.198;9.890;2023-01-10T10:20:11;6.70;99.90
20722;DHT22;10522;52.198;9.890;2023-01-10T10:22:52;6.80;99.90
20722;DHT22;10522;52.198;9.890;2023-01-10T10:33:21;6.90;99.90
20722;DHT22;10522;52.198;9.890;2023-01-10T10:36:17;7.00;99.90
20722;DHT22;10522;52.198;9.890;2023-01-10T10:38:43;7.10;99.90
20722;DHT22;10522;52.198;9.890;2023-01-10T10:41:37;7.00;99.90
20722;DHT22;10522;52.198;9.890;2023-01-10T10:47:17;6.90;99.90
20722;DHT22;10522;52.198;9.890;2023-01-10T10:52:21;6.90;99.90
20722;DHT22;10522;52.198;9.890;2023-01-10T10:54:48;6.90;99.90
20722;DHT22;10522;52.198;9.890;2023-01-10T10:57:13;6.90;99.90
20722;DHT22;10522;52.198;9.890;2023-01-10T10:59:41;6.90;99.90
20722;DHT22;10522;52.198;9.890;2023-01-10T11:04:46;6.90;99.90
20722;DHT22;10522;52.198;9.890;2023-01-10T11:07:16;6.90;99.90
20722;DHT22;10522;52.198;9.890;2023-01-10T11:09:43;6.90;99.90
20722;DHT22;10522;52.198;9.890;2023-01-10T11:12:39;7.00;99.90
20722;DHT22;10522;52.198;9.890;2023-01-10T11:15:09;7.00;99.90
20722;DHT22;10522;52.198;9.890;2023-01-10T11:17:35;7.00;99.90
20722;DHT22;10522;52.198;9.890;2023-01-10T11:20:13;7.00;99.90
20722;DHT22;10522;52.198;9.890;2023-01-10T11:22:49;7.00;99.90
20722;DHT22;10522;52.198;9.890;2023-01-10T11:25:18;6.90;99.90
20722;DHT22;10522;52.198;9.890;2023-01-10T11:30:20;6.90;99.90
20722;DHT22;10522;52.198;9.890;2023-01-10T11:32:51;6.80;99.90
20722;DHT22;10522;52.198;9.890;2023-01-10T11:35:31;6.90;99.90
20722;DHT22;10522;52.198;9.890;2023-01-10T11:38:18;6.90;99.90
20722;DHT22;10522;52.198;9.890;2023-01-10T11:41:04;6.90;99.90
20722;DHT22;10522;52.198;9.890;2023-01-10T11:43:31;7.00;99.90
20722;DHT22;10522;52.198;9.890;2023-01-10T11:48:33;7.10;99.90
20722;DHT22;10522;52.198;9.890;2023-01-10T11:51:04;7.10;99.90
20722;DHT22;10522;52.198;9.890;2023-01-10T11:53:36;7.20;99.90
20722;DHT22;10522;52.198;9.890;2023-01-10T11:56:03;7.30;99.90
20722;DHT22;10522;52.198;9.890;2023-01-10T11:58:30;7.40;99.90
20722;DHT22;10522;52.198;9.890;2023-01-10T12:00:57;7.50;99.90
20722;DHT22;10522;52.198;9.890;2023-01-10T12:03:26;7.50;99.90
20722;DHT22;10522;52.198;9.890;2023-01-10T12:05:54;7.60;99.90
20722;DHT22;10522;52.198;9.890;2023-01-10T12:08:32;7.60;99.90
20722;DHT22;10522;52.198;9.890;2023-01-10T12:11:22;7.50;99.90
20722;DHT22;10522;52.198;9.890;2023-01-10T12:13:56;7.40;99.90
20722;DHT22;10522;52.198;9.890;2023-01-10T12:16:30;7.40;99.90
20722;DHT22;10522;52.198;9.890;2023-01-10T12:19:04;7.40;99.90
20722;DHT22;10522;52.198;9.890;2023-01-10T12:21:41;7.40;99.90
20722;DHT22;10522;52.198;9.890;2023-01-10T12:24:22;7.50;99.90
20722;DHT22;10522;52.198;9.890;2023-01-10T12:26:49;7.60;99.90
20722;DHT22;10522;52.198;9.890;2023-01-10T12:29:22;7.70;99.90
20722;DHT22;10522;52.198;9.890;2023-01-10T12:31:51;7.70;99.90
20722;DHT22;10522;52.198;9.890;2023-01-10T12:34:20;7.80;99.90
20722;DHT22;10522;52.198;9.890;2023-01-10T12:39:32;7.90;99.90
20722;DHT22;10522;52.198;9.890;2023-01-10T12:47:47;7.70;99.90
20722;DHT22;10522;52.198;9.890;2023-01-10T12:55:43;7.60;99.90
20722;DHT22;10522;52.198;9.890;2023-01-10T12:58:19;7.50;99.90
20722;DHT22;10522;52.198;9.890;2023-01-10T13:00:49;7.50;99.90
20722;DHT22;10522;52.198;9.890;2023-01-10T13:03:19;7.50;99.90
20722;DHT22;10522;52.198;9.890;2023-01-10T13:05:46;7.50;99.90
20722;DHT22;10522;52.198;9.890;2023-01-10T13:08:16;7.50;99.90
20722;DHT22;10522;52.198;9.890;2023-01-10T13:10:48;7.40;99.90
20722;DHT22;10522;52.198;9.890;2023-01-10T13:13:44;7.30;99.90
20722;DHT22;10522;52.198;9.890;2023-01-10T13:21:31;7.30;99.90
20722;DHT22;10522;52.198;9.890;2023-01-10T13:24:05;7.30;99.90
20722;DHT22;10522;52.198;9.890;2023-01-10T13:26:59;7.40;99.90
20722;DHT22;10522;52.198;9.890;2023-01-10T13:29:37;7.50;99.90
20722;DHT22;10522;52.198;9.890;2023-01-10T13:34:49;7.60;99.90
20722;DHT22;10522;52.198;9.890;2023-01-10T13:37:28;7.60;99.90
20722;DHT22;10522;52.198;9.890;2023-01-10T13:39:57;7.50;99.90
20722;DHT22;10522;52.198;9.890;2023-01-10T13:42:27;7.50;99.90
20722;DHT22;10522;52.198;9.890;2023-01-10T13:45:14;7.40;99.90
20722;DHT22;10522;52.198;9.890;2023-01-10T13:52:51;7.30;99.90
20722;DHT22;10522;52.198;9.890;2023-01-10T13:58:00;7.30;99.90
20722;DHT22;10522;52.198;9.890;2023-01-10T14:00:47;7.40;99.90
20722;DHT22;10522;52.198;9.890;2023-01-10T14:03:51;7.30;99.90
20722;DHT22;10522;52.198;9.890;2023-01-10T14:11:28;7.20;99.90
20722;DHT22;10522;52.198;9.890;2023-01-10T14:13:57;7.10;99.90
20722;DHT22;10522;52.198;9.890;2023-01-10T14:16:32;7.10;99.90
20722;DHT22;10522;52.198;9.890;2023-01-10T14:18:59;7.10;99.90
20722;DHT22;10522;52.198;9.890;2023-01-10T14:21:27;7.10;99.90
20722;DHT22;10522;52.198;9.890;2023-01-10T14:23:54;7.10;99.90
20722;DHT22;10522;52.198;9.890;2023-01-10T14:26:32;7.10;99.90
20722;DHT22;10522;52.198;9.890;2023-01-10T14:29:00;7.10;99.90
20722;DHT22;10522;52.198;9.890;2023-01-10T14:31:26;7.20;99.90
20722;DHT22;10522;52.198;9.890;2023-01-10T14:33:52;7.20;99.90
20722;DHT22;10522;52.198;9.890;2023-01-10T14:36:26;7.20;99.90
20722;DHT22;10522;52.198;9.890;2023-01-10T14:38:56;7.10;99.90
20722;DHT22;10522;52.198;9.890;2023-01-10T14:44:01;7.10;99.90
20722;DHT22;10522;52.198;9.890;2023-01-10T14:46:43;7.10;99.90
20722;DHT22;10522;52.198;9.890;2023-01-10T14:49:27;7.10;99.90
20722;DHT22;10522;52.198;9.890;2023-01-10T14:52:00;7.00;99.90
20722;DHT22;10522;52.198;9.890;2023-01-10T14:54:35;7.00;99.90
20722;DHT22;10522;52.198;9.890;2023-01-10T14:57:00;6.90;99.90
20722;DHT22;10522;52.198;9.890;2023-01-10T14:59:28;6.90;99.90
20722;DHT22;10522;52.198;9.890;2023-01-10T15:01:57;6.80;99.90
20722;DHT22;10522;52.198;9.890;2023-01-10T15:04:27;6.80;99.90
20722;DHT22;10522;52.198;9.890;2023-01-10T15:06:54;6.70;99.90
20722;DHT22;10522;52.198;9.890;2023-01-10T15:09:21;6.80;99.90
20722;DHT22;10522;52.198;9.890;2023-01-10T15:11:47;6.70;99.90
20722;DHT22;10522;52.198;9.890;2023-01-10T15:14:15;6.70;99.90
20722;DHT22;10522;52.198;9.890;2023-01-10T15:16:45;6.70;99.90
20722;DHT22;10522;52.198;9.890;2023-01-10T15:19:15;6.70;99.90
20722;DHT22;10522;52.198;9.890;2023-01-10T15:21:43;6.80;99.90
20722;DHT22;10522;52.198;9.890;2023-01-10T15:24:35;6.70;99.90
20722;DHT22;10522;52.198;9.890;2023-01-10T15:27:05;6.70;99.90
20722;DHT22;10522;52.198;9.890;2023-01-10T15:29:33;6.70;99.90
20722;DHT22;10522;52.198;9.890;2023-01-10T15:32:10;6.70;99.90
20722;DHT22;10522;52.198;9.890;2023-01-10T15:34:37;6.70;99.90
20722;DHT22;10522;52.198;9.890;2023-01-10T15:37:04;6.80;99.90
20722;DHT22;10522;52.198;9.890;2023-01-10T15:39:39;6.70;99.90
20722;DHT22;10522;52.198;9.890;2023-01-10T15:42:09;6.60;99.90
20722;DHT22;10522;52.198;9.890;2023-01-10T15:47:40;6.50;99.90
20722;DHT22;10522;52.198;9.890;2023-01-10T15:50:20;6.50;99.90
20722;DHT22;10522;52.198;9.890;2023-01-10T15:52:51;6.50;99.90
20722;DHT22;10522;52.198;9.890;2023-01-10T15:57:59;6.50;99.90
20722;DHT22;10522;52.198;9.890;2023-01-10T16:00:26;6.50;99.90
20722;DHT22;10522;52.198;9.890;2023-01-10T16:02:51;6.40;99.90
20722;DHT22;10522;52.198;9.890;2023-01-10T16:05:18;6.40;99.90
20722;DHT22;10522;52.198;9.890;2023-01-10T16:07:45;6.50;99.90
20722;DHT22;10522;52.198;9.890;2023-01-10T16:10:28;6.40;99.90
20722;DHT22;10522;52.198;9.890;2023-01-10T16:13:10;6.50;99.90
20722;DHT22;10522;52.198;9.890;2023-01-10T16:15:55;6.40;99.90
20722;DHT22;10522;52.198;9.890;2023-01-10T16:18:20;6.40;99.90
20722;DHT22;10522;52.198;9.890;2023-01-10T16:20:47;6.40;99.90
20722;DHT22;10522;52.198;9.890;2023-01-10T16:23:26;6.40;99.90
20722;DHT22;10522;52.198;9.890;2023-01-10T16:25:59;6.40;99.90
20722;DHT22;10522;52.198;9.890;2023-01-10T16:28:26;6.30;99.90
20722;DHT22;10522;52.198;9.890;2023-01-10T16:30:53;6.30;99.90
20722;DHT22;10522;52.198;9.890;2023-01-10T16:33:24;6.20;99.90
20722;DHT22;10522;52.198;9.890;2023-01-10T16:35:57;6.20;99.90
20722;DHT22;10522;52.198;9.890;2023-01-10T16:38:25;6.20;99.90
20722;DHT22;10522;52.198;9.890;2023-01-10T16:40:59;6.30;99.90
20722;DHT22;10522;52.198;9.890;2023-01-10T16:43:47;6.30;99.90
20722;DHT22;10522;52.198;9.890;2023-01-10T16:46:12;6.30;99.90
20722;DHT22;10522;52.198;9.890;2023-01-10T16:48:38;6.30;99.90
20722;DHT22;10522;52.198;9.890;2023-01-10T16:51:25;6.30;99.90
20722;DHT22;10522;52.198;9.890;2023-01-10T16:53:52;6.30;99.90
20722;DHT22;10522;52.198;9.890;2023-01-10T16:56:22;6.30;99.90
20722;DHT22;10522;52.198;9.890;2023-01-10T16:58:49;6.20;99.90
20722;DHT22;10522;52.198;9.890;2023-01-10T17:01:21;6.20;99.90
20722;DHT22;10522;52.198;9.890;2023-01-10T17:03:48;6.30;99.90
20722;DHT22;10522;52.198;9.890;2023-01-10T17:06:14;6.10;99.90
20722;DHT22;10522;52.198;9.890;2023-01-10T17:08:40;6.20;99.90
20722;DHT22;10522;52.198;9.890;2023-01-10T17:11:12;6.10;99.90
20722;DHT22;10522;52.198;9.890;2023-01-10T17:13:41;6.20;99.90
20722;DHT22;10522;52.198;9.890;2023-01-10T17:16:07;6.20;99.90
20722;DHT22;10522;52.198;9.890;2023-01-10T17:18:33;6.20;99.90
20722;DHT22;10522;52.198;9.890;2023-01-10T17:20:58;6.10;99.90
20722;DHT22;10522;52.198;9.890;2023-01-10T17:23:24;6.10;99.90
20722;DHT22;10522;52.198;9.890;2023-01-10T17:26:00;6.10;99.90
20722;DHT22;10522;52.198;9.890;2023-01-10T17:28:27;6.10;99.90
20722;DHT22;10522;52.198;9.890;2023-01-10T17:30:54;6.10;99.90
20722;DHT22;10522;52.198;9.890;2023-01-10T17:33:19;6.10;99.90
20722;DHT22;10522;52.198;9.890;2023-01-10T17:35:45;6.10;99.90
20722;DHT22;10522;52.198;9.890;2023-01-10T17:38:13;6.10;99.90
20722;DHT22;10522;52.198;9.890;2023-01-10T17:40:43;6.20;99.90
20722;DHT22;10522;52.198;9.890;2023-01-10T17:43:09;6.20;99.90
20722;DHT22;10522;52.198;9.890;2023-01-10T17:45:43;6.20;99.90
20722;DHT22;10522;52.198;9.890;2023-01-10T17:48:10;6.20;99.90
20722;DHT22;10522;52.198;9.890;2023-01-10T17:50:41;6.10;99.90
20722;DHT22;10522;52.198;9.890;2023-01-10T17:53:07;6.10;99.90
20722;DHT22;10522;52.198;9.890;2023-01-10T17:55:33;6.10;99.90